Time;durP1;ratioP1;P1;durP2;ratioP2;P2;SDS_P1;SDS_P2;PMS_P1;PMS_P2;Temp;Humidity;BMP_temperature;BMP_pressure;BME280_temperature;BME280_humidity;BME280_pressure;Samples;Min_cycle;Max_cycle;Signal;HPM_P1;HPM_P2
2024/02/13 00:00:09;;;;;;;14.18;4.95;;;;;;;;;;5054509;28;20281;-63
2024/02/13 00:02:39;;;;;;;12.93;5.82;;;;;;;;;;5040291;28;20295;-63
2024/02/13 00:05:08;;;;;;;12.38;4.70;;;;;;;;;;5049097;28;20276;-63
2024/02/13 00:07:38;;;;;;;7.47;3.95;;;;;;;;;;5052462;28;20305;-62
2024/02/13 00:10:09;;;;;;;6.45;3.17;;;;;;;;;;5057423;28;20252;-63
2024/02/13 00:12:38;;;;;;;5.32;2.60;;;;;;;;;;5056340;28;20703;-63
2024/02/13 00:15:08;;;;;;;15.90;4.07;;;;;;;;;;5046342;28;20299;-63
2024/02/13 00:17:40;;;;;;;5.40;2.97;;;;;;;;;;5048684;28;20284;-65
2024/02/13 00:20:10;;;;;;;10.15;3.13;;;;;;;;;;5035732;28;20186;-63
2024/02/13 00:22:38;;;;;;;11.63;4.35;;;;;;;;;;5036729;28;20348;-65
2024/02/13 00:25:08;;;;;;;7.63;3.88;;;;;;;;;;5035400;28;20207;-64
2024/02/13 00:27:38;;;;;;;11.00;3.38;;;;;;;;;;5048434;28;20277;-65
2024/02/13 00:30:09;;;;;;;8.93;3.88;;;;;;;;;;5037654;28;20289;-64
2024/02/13 00:32:46;;;;;;;7.47;3.70;;;;;;;;;;5041370;28;20268;-64
2024/02/13 00:35:29;;;;;;;12.18;4.05;;;;;;;;;;5056338;28;20271;-65
2024/02/13 00:37:57;;;;;;;8.82;4.15;;;;;;;;;;5054918;28;20802;-65
2024/02/13 00:40:26;;;;;;;11.70;3.90;;;;;;;;;;5044429;28;20260;-64
2024/02/13 00:42:55;;;;;;;6.57;3.80;;;;;;;;;;5043400;28;20770;-64
2024/02/13 00:45:24;;;;;;;18.00;4.45;;;;;;;;;;5055019;28;20666;-66
2024/02/13 00:48:05;;;;;;;5.00;3.28;;;;;;;;;;5042664;28;20264;-64
2024/02/13 00:50:35;;;;;;;6.95;4.43;;;;;;;;;;5044558;28;20280;-65
2024/02/13 00:53:03;;;;;;;9.15;3.97;;;;;;;;;;5035535;28;20260;-65
2024/02/13 00:55:32;;;;;;;9.45;3.85;;;;;;;;;;5042420;28;20280;-66
2024/02/13 00:58:01;;;;;;;9.73;3.22;;;;;;;;;;5055310;28;20292;-65
2024/02/13 01:00:30;;;;;;;6.63;4.30;;;;;;;;;;5046596;28;20295;-64
2024/02/13 01:02:58;;;;;;;8.98;4.03;;;;;;;;;;5054860;28;20315;-65
2024/02/13 01:05:27;;;;;;;9.50;4.20;;;;;;;;;;5055730;28;20288;-64
2024/02/13 01:07:55;;;;;;;8.23;3.65;;;;;;;;;;5055692;28;20268;-66
2024/02/13 01:10:23;;;;;;;9.57;3.53;;;;;;;;;;5056190;28;20653;-64
2024/02/13 01:12:52;;;;;;;18.48;4.82;;;;;;;;;;5055024;28;20739;-66
2024/02/13 01:15:22;;;;;;;4.25;3.03;;;;;;;;;;5051009;28;20625;-64
2024/02/13 01:17:50;;;;;;;18.70;4.25;;;;;;;;;;5049166;28;20644;-65
2024/02/13 01:20:19;;;;;;;7.93;4.25;;;;;;;;;;5051625;28;20708;-64
2024/02/13 01:22:47;;;;;;;6.97;3.80;;;;;;;;;;5037561;28;20303;-65
2024/02/13 01:25:17;;;;;;;5.60;3.38;;;;;;;;;;5047053;28;20344;-64
2024/02/13 01:27:46;;;;;;;9.65;3.60;;;;;;;;;;5048833;28;20288;-65
2024/02/13 01:30:14;;;;;;;17.92;3.83;;;;;;;;;;5054515;28;20279;-65
2024/02/13 01:32:44;;;;;;;8.30;3.50;;;;;;;;;;5043111;28;20260;-64
2024/02/13 01:35:13;;;;;;;7.70;3.90;;;;;;;;;;5054791;28;20291;-64
2024/02/13 01:37:42;;;;;;;5.82;3.58;;;;;;;;;;5046595;28;20252;-65
2024/02/13 01:40:11;;;;;;;8.32;3.70;;;;;;;;;;5048481;28;20257;-64
2024/02/13 01:42:40;;;;;;;5.85;3.55;;;;;;;;;;5036081;28;20307;-64
2024/02/13 01:45:09;;;;;;;8.38;3.63;;;;;;;;;;5048999;28;20283;-64
2024/02/13 01:47:53;;;;;;;5.65;3.65;;;;;;;;;;5055983;28;20291;-67
2024/02/13 01:50:22;;;;;;;12.27;3.92;;;;;;;;;;5051459;28;20277;-66
2024/02/13 01:52:52;;;;;;;10.95;5.00;;;;;;;;;;5039946;28;20284;-64
2024/02/13 01:55:23;;;;;;;11.65;5.20;;;;;;;;;;5054944;28;20752;-64
2024/02/13 01:57:56;;;;;;;9.65;4.75;;;;;;;;;;5060339;28;20283;-64
2024/02/13 02:00:24;;;;;;;7.82;4.78;;;;;;;;;;5039286;28;20265;-65
2024/02/13 02:02:54;;;;;;;8.88;4.82;;;;;;;;;;5038502;28;20207;-66
2024/02/13 02:05:22;;;;;;;9.45;4.40;;;;;;;;;;5046775;28;20252;-67
2024/02/13 02:08:08;;;;;;;10.63;3.63;;;;;;;;;;5058328;28;20876;-64
2024/02/13 02:10:36;;;;;;;7.82;3.67;;;;;;;;;;5053845;28;20284;-65
2024/02/13 02:13:04;;;;;;;14.98;3.75;;;;;;;;;;5045425;28;20261;-65
2024/02/13 02:15:37;;;;;;;8.50;3.80;;;;;;;;;;5058719;28;20252;-65
2024/02/13 02:18:08;;;;;;;4.95;3.30;;;;;;;;;;5053022;28;20244;-64
2024/02/13 02:20:37;;;;;;;8.18;4.35;;;;;;;;;;5051274;28;20263;-64
2024/02/13 02:23:07;;;;;;;7.28;3.47;;;;;;;;;;5059740;28;20327;-64
2024/02/13 02:25:36;;;;;;;4.28;3.13;;;;;;;;;;5047117;28;20257;-64
2024/02/13 02:28:25;;;;;;;7.53;3.65;;;;;;;;;;5059406;28;20299;-64
2024/02/13 02:31:05;;;;;;;8.23;3.42;;;;;;;;;;5059522;28;20259;-65
2024/02/13 02:33:33;;;;;;;7.22;3.40;;;;;;;;;;5059342;28;20265;-64
2024/02/13 02:36:01;;;;;;;13.00;3.65;;;;;;;;;;5057269;28;20287;-65
2024/02/13 02:38:29;;;;;;;10.25;3.22;;;;;;;;;;5059544;28;20303;-64
2024/02/13 02:40:59;;;;;;;7.43;4.10;;;;;;;;;;5059068;28;20758;-65
2024/02/13 02:43:27;;;;;;;6.22;3.70;;;;;;;;;;5058981;28;20308;-65
2024/02/13 02:45:55;;;;;;;12.85;3.90;;;;;;;;;;5046021;28;20261;-65
2024/02/13 02:48:23;;;;;;;11.75;4.32;;;;;;;;;;5057282;28;20307;-64
2024/02/13 02:50:52;;;;;;;5.65;3.20;;;;;;;;;;5052285;28;20257;-64
2024/02/13 02:53:20;;;;;;;9.63;3.97;;;;;;;;;;5038039;28;20261;-66
2024/02/13 02:55:49;;;;;;;14.27;3.83;;;;;;;;;;5043874;28;20284;-65
2024/02/13 02:58:19;;;;;;;5.13;3.10;;;;;;;;;;5048698;28;20370;-65
2024/02/13 03:00:48;;;;;;;12.77;3.92;;;;;;;;;;5049431;28;20292;-64
2024/02/13 03:03:20;;;;;;;6.72;3.75;;;;;;;;;;5038395;28;20260;-65
2024/02/13 03:05:50;;;;;;;15.88;4.82;;;;;;;;;;5051935;28;20249;-64
2024/02/13 03:08:18;;;;;;;8.63;3.55;;;;;;;;;;5059310;28;20323;-66
2024/02/13 03:10:46;;;;;;;5.20;2.97;;;;;;;;;;5058696;28;20283;-64
2024/02/13 03:13:15;;;;;;;12.93;3.50;;;;;;;;;;5055999;28;20265;-63
2024/02/13 03:15:46;;;;;;;4.82;3.55;;;;;;;;;;5059173;28;20248;-64
2024/02/13 03:18:14;;;;;;;7.15;4.22;;;;;;;;;;5058262;28;20264;-64
2024/02/13 03:20:43;;;;;;;9.60;4.40;;;;;;;;;;5058708;28;20291;-64
2024/02/13 03:23:11;;;;;;;13.13;4.70;;;;;;;;;;5058176;28;20319;-64
2024/02/13 03:25:39;;;;;;;6.40;4.40;;;;;;;;;;5058447;28;20787;-66
2024/02/13 03:28:27;;;;;;;7.70;4.25;;;;;;;;;;5058414;28;20276;-64
2024/02/13 03:30:57;;;;;;;7.25;3.90;;;;;;;;;;5058875;28;20256;-65
2024/02/13 03:33:25;;;;;;;9.15;3.65;;;;;;;;;;5058375;28;20260;-65
2024/02/13 03:35:53;;;;;;;15.57;4.15;;;;;;;;;;5057718;28;20275;-65
2024/02/13 03:38:22;;;;;;;15.50;4.30;;;;;;;;;;5056903;28;20260;-64
2024/02/13 03:40:50;;;;;;;8.15;4.47;;;;;;;;;;5053178;28;20283;-66
2024/02/13 03:43:18;;;;;;;7.57;4.35;;;;;;;;;;5045523;28;21312;-67
2024/02/13 03:45:46;;;;;;;7.65;4.07;;;;;;;;;;5039609;28;20287;-64
2024/02/13 03:48:18;;;;;;;9.25;4.20;;;;;;;;;;5051237;28;20194;-65
2024/02/13 03:50:47;;;;;;;16.90;5.00;;;;;;;;;;5038162;28;20283;-65
2024/02/13 03:53:15;;;;;;;11.50;5.05;;;;;;;;;;5037817;28;20309;-66
2024/02/13 03:55:43;;;;;;;10.80;4.43;;;;;;;;;;5036229;28;20708;-64
2024/02/13 03:58:12;;;;;;;7.45;3.92;;;;;;;;;;5043358;28;20823;-64
2024/02/13 04:00:41;;;;;;;9.13;4.38;;;;;;;;;;5055728;28;20657;-64
2024/02/13 04:03:11;;;;;;;4.63;4.15;;;;;;;;;;5056192;28;20279;-65
2024/02/13 04:05:41;;;;;;;9.23;5.13;;;;;;;;;;5043454;28;20256;-66
2024/02/13 04:08:09;;;;;;;12.20;4.50;;;;;;;;;;5056040;28;20279;-65
2024/02/13 04:10:38;;;;;;;9.15;3.67;;;;;;;;;;5056028;28;20307;-65
2024/02/13 04:13:07;;;;;;;6.03;4.03;;;;;;;;;;5054600;28;20301;-65
2024/02/13 04:15:37;;;;;;;9.90;4.00;;;;;;;;;;5056937;28;20338;-64
2024/02/13 04:18:08;;;;;;;10.57;4.38;;;;;;;;;;5057197;28;20267;-64
2024/02/13 04:20:41;;;;;;;11.15;4.80;;;;;;;;;;5040408;28;20272;-64
2024/02/13 04:23:09;;;;;;;4.85;4.35;;;;;;;;;;5038116;28;20284;-65
2024/02/13 04:25:37;;;;;;;8.35;4.70;;;;;;;;;;5037663;28;20599;-65
2024/02/13 04:28:05;;;;;;;7.43;4.45;;;;;;;;;;5041883;28;20617;-65
2024/02/13 04:30:40;;;;;;;8.85;4.53;;;;;;;;;;5046390;28;20304;-65
2024/02/13 04:33:09;;;;;;;6.78;4.35;;;;;;;;;;5036891;28;20272;-66
2024/02/13 04:35:37;;;;;;;10.77;4.25;;;;;;;;;;5055237;28;20256;-65
2024/02/13 04:38:07;;;;;;;10.68;5.07;;;;;;;;;;5056754;28;20260;-64
2024/02/13 04:40:36;;;;;;;17.83;4.53;;;;;;;;;;5052362;28;20276;-65
2024/02/13 04:43:21;;;;;;;5.90;4.07;;;;;;;;;;5056803;28;20296;-65
2024/02/13 04:45:49;;;;;;;9.68;5.15;;;;;;;;;;5055374;28;20749;-65
2024/02/13 04:48:18;;;;;;;15.38;5.30;;;;;;;;;;5055143;28;20634;-64
2024/02/13 04:50:46;;;;;;;6.70;5.25;;;;;;;;;;5056039;28;20684;-64
2024/02/13 04:53:20;;;;;;;14.57;5.28;;;;;;;;;;5056570;28;20276;-65
2024/02/13 04:55:48;;;;;;;11.85;4.78;;;;;;;;;;5046651;28;20275;-64
2024/02/13 04:58:20;;;;;;;10.75;4.38;;;;;;;;;;5054716;28;20284;-65
2024/02/13 05:00:51;;;;;;;13.68;4.50;;;;;;;;;;5048944;28;20367;-64
2024/02/13 05:03:26;;;;;;;11.80;4.20;;;;;;;;;;5035441;28;20272;-64
2024/02/13 05:08:43;;;;;;;12.30;5.18;;;;;;;;;;5054403;28;20283;-64
2024/02/13 05:11:13;;;;;;;9.57;5.22;;;;;;;;;;5056712;28;20276;-64
2024/02/13 05:13:41;;;;;;;10.35;4.35;;;;;;;;;;5042316;28;20276;-64
2024/02/13 05:16:10;;;;;;;13.95;4.63;;;;;;;;;;5037367;28;20257;-64
2024/02/13 05:18:39;;;;;;;8.75;4.93;;;;;;;;;;5054649;28;20711;-64
2024/02/13 05:21:08;;;;;;;19.70;4.53;;;;;;;;;;5058416;28;20762;-66
2024/02/13 05:23:38;;;;;;;7.72;5.22;;;;;;;;;;5060678;28;20268;-65
2024/02/13 05:26:08;;;;;;;18.13;5.82;;;;;;;;;;5061193;28;20671;-65
2024/02/13 05:28:37;;;;;;;14.02;5.13;;;;;;;;;;5046354;28;20292;-65
2024/02/13 05:31:05;;;;;;;12.02;4.80;;;;;;;;;;5042505;28;20282;-65
2024/02/13 05:33:34;;;;;;;8.77;4.75;;;;;;;;;;5060840;28;20284;-64
2024/02/13 05:36:03;;;;;;;5.75;4.30;;;;;;;;;;5043443;28;20408;-65
2024/02/13 05:38:37;;;;;;;5.03;3.85;;;;;;;;;;5048077;28;20750;-64
2024/02/13 05:41:05;;;;;;;8.73;4.00;;;;;;;;;;5040689;28;20272;-65
2024/02/13 05:43:35;;;;;;;7.65;4.82;;;;;;;;;;5040832;28;20292;-64
2024/02/13 05:46:03;;;;;;;4.47;3.88;;;;;;;;;;5050829;28;20272;-64
2024/02/13 05:48:32;;;;;;;9.60;5.38;;;;;;;;;;5060958;28;20207;-64
2024/02/13 05:51:00;;;;;;;9.00;4.55;;;;;;;;;;5044270;28;20264;-64
2024/02/13 05:53:29;;;;;;;8.43;4.88;;;;;;;;;;5044302;28;20275;-67
2024/02/13 05:55:58;;;;;;;12.40;5.53;;;;;;;;;;5047616;28;20350;-64
2024/02/13 05:58:27;;;;;;;11.85;5.45;;;;;;;;;;5055811;28;20309;-64
2024/02/13 06:00:57;;;;;;;11.55;6.20;;;;;;;;;;5052199;28;20724;-65
2024/02/13 06:03:25;;;;;;;16.20;6.95;;;;;;;;;;5043876;28;20278;-67
2024/02/13 06:05:54;;;;;;;11.52;5.50;;;;;;;;;;5048248;28;20204;-67
2024/02/13 06:08:23;;;;;;;15.13;6.30;;;;;;;;;;5043193;28;20201;-67
2024/02/13 06:10:51;;;;;;;8.68;5.05;;;;;;;;;;5047985;28;20220;-67
2024/02/13 06:13:19;;;;;;;10.05;5.28;;;;;;;;;;5049790;28;20222;-67
2024/02/13 06:15:48;;;;;;;15.75;5.78;;;;;;;;;;5035650;28;20801;-67
2024/02/13 06:18:17;;;;;;;8.65;4.72;;;;;;;;;;5044929;28;20661;-67
2024/02/13 06:20:46;;;;;;;11.63;6.03;;;;;;;;;;5036309;28;20262;-67
2024/02/13 06:23:14;;;;;;;9.80;5.68;;;;;;;;;;5041980;28;20197;-67
2024/02/13 06:25:42;;;;;;;7.13;4.65;;;;;;;;;;5054511;28;20211;-67
2024/02/13 06:28:10;;;;;;;13.52;5.65;;;;;;;;;;5048633;28;20215;-65
2024/02/13 06:30:39;;;;;;;11.13;5.55;;;;;;;;;;5051545;28;20220;-67
2024/02/13 06:33:07;;;;;;;17.17;5.45;;;;;;;;;;5045257;28;20562;-67
2024/02/13 06:35:37;;;;;;;14.65;5.72;;;;;;;;;;5044359;28;20209;-67
2024/02/13 06:38:20;;;;;;;8.77;5.55;;;;;;;;;;5039907;28;20291;-67
2024/02/13 06:40:48;;;;;;;9.68;5.13;;;;;;;;;;5052026;28;20203;-67
2024/02/13 06:43:17;;;;;;;17.40;6.13;;;;;;;;;;5053490;28;20192;-67
2024/02/13 06:45:45;;;;;;;12.65;5.68;;;;;;;;;;5046996;28;20220;-67
2024/02/13 06:48:14;;;;;;;10.32;5.65;;;;;;;;;;5046356;28;20203;-67
2024/02/13 06:50:43;;;;;;;11.68;6.05;;;;;;;;;;5043045;28;20227;-67
2024/02/13 06:53:11;;;;;;;6.35;5.75;;;;;;;;;;5033727;28;20206;-67
2024/02/13 06:55:40;;;;;;;12.35;6.00;;;;;;;;;;5033518;28;20205;-68
2024/02/13 06:58:10;;;;;;;7.72;5.85;;;;;;;;;;5050750;28;20311;-68
2024/02/13 07:00:39;;;;;;;10.80;5.32;;;;;;;;;;5045863;28;20201;-67
2024/02/13 07:03:07;;;;;;;6.90;5.68;;;;;;;;;;5032240;28;20209;-67
2024/02/13 07:05:36;;;;;;;6.30;4.85;;;;;;;;;;5039244;28;20205;-67
2024/02/13 07:08:06;;;;;;;7.60;5.28;;;;;;;;;;5046298;28;20563;-67
2024/02/13 07:10:35;;;;;;;7.75;5.70;;;;;;;;;;5052015;28;20221;-67
2024/02/13 07:13:13;;;;;;;6.28;5.65;;;;;;;;;;5051366;28;20222;-67
2024/02/13 07:15:42;;;;;;;10.60;5.88;;;;;;;;;;5045618;28;20212;-67
2024/02/13 07:18:10;;;;;;;8.63;6.35;;;;;;;;;;5044388;28;20201;-67
2024/02/13 07:20:38;;;;;;;8.57;6.20;;;;;;;;;;5049218;28;20197;-67
2024/02/13 07:23:08;;;;;;;11.40;6.40;;;;;;;;;;5050052;28;20242;-67
2024/02/13 07:25:36;;;;;;;12.73;7.72;;;;;;;;;;5049617;28;20203;-67
2024/02/13 07:28:05;;;;;;;11.85;6.68;;;;;;;;;;5052772;28;20211;-68
2024/02/13 07:30:33;;;;;;;9.07;6.20;;;;;;;;;;5040111;28;20814;-67
2024/02/13 07:33:02;;;;;;;9.80;6.07;;;;;;;;;;5042541;28;20201;-68
2024/02/13 07:35:30;;;;;;;15.18;6.88;;;;;;;;;;5030465;28;20227;-68
2024/02/13 07:38:04;;;;;;;13.18;7.80;;;;;;;;;;5042692;28;20228;-68
2024/02/13 07:40:33;;;;;;;13.70;8.45;;;;;;;;;;5032253;28;20221;-68
2024/02/13 07:43:02;;;;;;;7.28;5.68;;;;;;;;;;5039277;28;20309;-68
2024/02/13 07:45:30;;;;;;;7.40;5.15;;;;;;;;;;5040784;28;20189;-68
2024/02/13 07:48:10;;;;;;;11.35;5.95;;;;;;;;;;5039025;28;20264;-68
2024/02/13 07:50:40;;;;;;;7.63;5.25;;;;;;;;;;5042615;28;20219;-67
2024/02/13 07:53:10;;;;;;;10.48;5.90;;;;;;;;;;5045299;28;20195;-67
2024/02/13 07:55:39;;;;;;;12.75;5.40;;;;;;;;;;5039325;28;20209;-67
2024/02/13 07:58:08;;;;;;;13.23;5.72;;;;;;;;;;5039546;28;20240;-67
2024/02/13 08:00:37;;;;;;;10.43;7.93;;;;;;;;;;5044667;28;20209;-67
2024/02/13 08:03:06;;;;;;;9.50;6.10;;;;;;;;;;5042722;28;20196;-67
2024/02/13 08:05:37;;;;;;;9.05;6.05;;;;;;;;;;5040888;28;20218;-67
2024/02/13 08:08:06;;;;;;;13.13;6.90;;;;;;;;;;5041424;28;20204;-67
2024/02/13 08:10:35;;;;;;;11.32;6.13;;;;;;;;;;5044350;28;20211;-67
2024/02/13 08:13:04;;;;;;;9.93;6.05;;;;;;;;;;5040992;28;20800;-67
2024/02/13 08:15:33;;;;;;;16.27;8.38;;;;;;;;;;5050174;28;20207;-67
2024/02/13 08:18:01;;;;;;;6.30;5.40;;;;;;;;;;5048432;28;20197;-67
2024/02/13 08:20:30;;;;;;;8.10;5.40;;;;;;;;;;5050891;28;20200;-67
2024/02/13 08:22:59;;;;;;;9.20;5.60;;;;;;;;;;5036340;28;20760;-70
2024/02/13 08:25:27;;;;;;;7.25;5.18;;;;;;;;;;5035725;28;20201;-68
2024/02/13 08:27:57;;;;;;;5.43;4.93;;;;;;;;;;5038633;28;20212;-69
2024/02/13 08:30:27;;;;;;;14.18;5.25;;;;;;;;;;5041410;28;20196;-68
2024/02/13 08:32:56;;;;;;;5.95;5.45;;;;;;;;;;5036684;28;20190;-68
2024/02/13 08:35:24;;;;;;;11.10;6.03;;;;;;;;;;5041644;28;20203;-68
2024/02/13 08:37:52;;;;;;;7.35;5.40;;;;;;;;;;5043719;28;20197;-68
2024/02/13 08:40:20;;;;;;;11.63;5.47;;;;;;;;;;5031667;28;20197;-68
2024/02/13 08:42:49;;;;;;;11.63;5.78;;;;;;;;;;5034863;28;20664;-68
2024/02/13 08:45:17;;;;;;;10.88;5.20;;;;;;;;;;5038203;28;20200;-67
2024/02/13 08:47:56;;;;;;;9.32;5.03;;;;;;;;;;5040918;28;20193;-68
2024/02/13 08:50:24;;;;;;;15.43;6.82;;;;;;;;;;5043163;28;20690;-68
2024/02/13 08:52:53;;;;;;;6.57;5.50;;;;;;;;;;5038536;28;20239;-68
2024/02/13 08:55:21;;;;;;;9.95;5.38;;;;;;;;;;5039603;28;20193;-68
2024/02/13 08:57:51;;;;;;;6.00;4.75;;;;;;;;;;5040626;28;20232;-68
2024/02/13 09:00:20;;;;;;;5.43;3.58;;;;;;;;;;5044357;28;20677;-68
2024/02/13 09:03:06;;;;;;;4.88;4.43;;;;;;;;;;5045923;28;20238;-68
2024/02/13 09:05:37;;;;;;;5.93;4.72;;;;;;;;;;5043634;28;20197;-68
2024/02/13 09:08:06;;;;;;;4.38;3.47;;;;;;;;;;5036786;28;20261;-68
2024/02/13 09:10:35;;;;;;;3.85;3.35;;;;;;;;;;5040741;28;20219;-68
2024/02/13 09:13:05;;;;;;;6.68;3.83;;;;;;;;;;5042018;28;20217;-69
2024/02/13 09:15:34;;;;;;;3.75;3.42;;;;;;;;;;5050095;28;20256;-69
2024/02/13 09:18:02;;;;;;;7.88;4.43;;;;;;;;;;5046177;28;20284;-69
2024/02/13 09:20:32;;;;;;;4.63;4.25;;;;;;;;;;5050083;28;20268;-68
2024/02/13 09:23:01;;;;;;;6.05;4.55;;;;;;;;;;5043148;28;20236;-67
2024/02/13 09:25:30;;;;;;;5.63;4.75;;;;;;;;;;5035929;28;20210;-68
2024/02/13 09:27:58;;;;;;;8.68;4.90;;;;;;;;;;5030579;28;20212;-68
2024/02/13 09:30:27;;;;;;;7.18;4.43;;;;;;;;;;5035545;28;20193;-67
2024/02/13 09:32:55;;;;;;;5.90;4.50;;;;;;;;;;5042184;28;20220;-68
2024/02/13 09:35:23;;;;;;;5.20;4.47;;;;;;;;;;5035271;28;20200;-67
2024/02/13 09:37:59;;;;;;;9.95;5.55;;;;;;;;;;5046999;28;20693;-65
2024/02/13 09:40:28;;;;;;;6.25;4.93;;;;;;;;;;5046388;28;20220;-68
2024/02/13 09:42:57;;;;;;;5.93;4.90;;;;;;;;;;5042802;28;20193;-67
2024/02/13 09:45:26;;;;;;;4.72;4.30;;;;;;;;;;5036437;28;20193;-67
2024/02/13 09:47:58;;;;;;;6.07;4.43;;;;;;;;;;5037811;28;20197;-68
2024/02/13 09:50:29;;;;;;;5.18;3.60;;;;;;;;;;5047399;28;20185;-67
2024/02/13 09:53:02;;;;;;;4.60;4.00;;;;;;;;;;5030647;28;20216;-68
2024/02/13 09:55:32;;;;;;;4.80;4.22;;;;;;;;;;5026898;28;20196;-68
2024/02/13 09:58:00;;;;;;;6.30;3.47;;;;;;;;;;5047590;28;20598;-68
2024/02/13 10:00:30;;;;;;;6.57;4.28;;;;;;;;;;5047325;28;20201;-68
2024/02/13 10:02:59;;;;;;;5.85;3.85;;;;;;;;;;5046666;28;20215;-67
2024/02/13 10:05:27;;;;;;;5.10;3.50;;;;;;;;;;5046467;28;20211;-67
2024/02/13 10:07:55;;;;;;;4.88;4.25;;;;;;;;;;5050616;28;20551;-67
2024/02/13 10:10:25;;;;;;;4.53;3.97;;;;;;;;;;5050613;28;20207;-67
2024/02/13 10:12:53;;;;;;;5.03;3.40;;;;;;;;;;5050765;28;20230;-67
2024/02/13 10:15:22;;;;;;;7.78;3.60;;;;;;;;;;5050600;28;20266;-67
2024/02/13 10:17:51;;;;;;;6.35;4.43;;;;;;;;;;5050378;28;20652;-67
2024/02/13 10:20:19;;;;;;;3.95;3.58;;;;;;;;;;5050089;28;20205;-67
2024/02/13 10:22:47;;;;;;;12.52;4.63;;;;;;;;;;5050427;28;20266;-67
2024/02/13 10:25:18;;;;;;;11.20;4.10;;;;;;;;;;5050002;28;20209;-65
2024/02/13 10:27:48;;;;;;;10.43;4.50;;;;;;;;;;5050491;28;20201;-65
2024/02/13 10:30:23;;;;;;;7.30;3.85;;;;;;;;;;5051629;28;20189;-65
2024/02/13 10:32:51;;;;;;;7.25;3.05;;;;;;;;;;5050954;28;20212;-66
2024/02/13 10:35:21;;;;;;;5.07;2.72;;;;;;;;;;5050637;28;20212;-66
2024/02/13 10:37:52;;;;;;;3.00;2.80;;;;;;;;;;5050248;28;20192;-66
2024/02/13 10:40:22;;;;;;;5.10;3.55;;;;;;;;;;5050615;28;20205;-66
2024/02/13 10:42:52;;;;;;;3.50;3.20;;;;;;;;;;5050739;28;20201;-66
2024/02/13 10:45:23;;;;;;;3.28;3.05;;;;;;;;;;5047507;28;20588;-66
2024/02/13 10:47:56;;;;;;;2.95;2.75;;;;;;;;;;5038997;28;20196;-66
2024/02/13 10:50:24;;;;;;;3.22;2.92;;;;;;;;;;5051440;28;20195;-66
2024/02/13 10:52:54;;;;;;;3.80;3.60;;;;;;;;;;5050735;28;20221;-67
2024/02/13 10:55:23;;;;;;;5.55;4.53;;;;;;;;;;5050569;28;20204;-66
2024/02/13 10:57:53;;;;;;;5.22;4.68;;;;;;;;;;5047292;28;20597;-66
2024/02/13 11:00:23;;;;;;;8.82;5.20;;;;;;;;;;5046596;28;20200;-66
2024/02/13 11:02:52;;;;;;;9.07;5.05;;;;;;;;;;5050335;28;20773;-66
2024/02/13 11:05:25;;;;;;;5.00;4.60;;;;;;;;;;5048341;28;20205;-66
2024/02/13 11:07:53;;;;;;;4.93;4.72;;;;;;;;;;5036151;28;20193;-66
2024/02/13 11:10:29;;;;;;;6.43;5.70;;;;;;;;;;5050613;28;20193;-66
2024/02/13 11:12:58;;;;;;;5.93;5.25;;;;;;;;;;5047843;28;20220;-66
2024/02/13 11:15:29;;;;;;;6.93;6.23;;;;;;;;;;5050242;28;20216;-66
2024/02/13 11:18:11;;;;;;;5.63;5.32;;;;;;;;;;5049840;28;20581;-66
2024/02/13 11:20:42;;;;;;;6.25;5.85;;;;;;;;;;5046754;28;20283;-66
2024/02/13 11:23:29;;;;;;;5.20;4.90;;;;;;;;;;5037249;28;20185;-66
2024/02/13 11:25:58;;;;;;;7.00;5.60;;;;;;;;;;5035085;28;20193;-66
2024/02/13 11:28:34;;;;;;;5.97;5.60;;;;;;;;;;5034021;28;20726;-66
2024/02/13 11:31:14;;;;;;;6.10;5.65;;;;;;;;;;5048070;28;20273;-66
2024/02/13 11:34:01;;;;;;;6.35;5.85;;;;;;;;;;5047043;28;20204;-66
2024/02/13 11:36:31;;;;;;;8.37;7.57;;;;;;;;;;5044258;28;20578;-66
2024/02/13 11:39:03;;;;;;;7.67;7.27;;;;;;;;;;5044018;28;20624;-66
2024/02/13 11:41:31;;;;;;;8.77;8.47;;;;;;;;;;5039565;28;20615;-66
2024/02/13 11:44:08;;;;;;;9.00;8.60;;;;;;;;;;5034485;28;20599;-67
2024/02/13 11:46:36;;;;;;;9.70;9.00;;;;;;;;;;5039610;28;20548;-68
2024/02/13 11:49:07;;;;;;;8.80;8.40;;;;;;;;;;5037892;28;20602;-67
2024/02/13 11:51:36;;;;;;;10.23;9.77;;;;;;;;;;5033023;28;20607;-67
2024/02/13 11:54:06;;;;;;;10.03;9.63;;;;;;;;;;5049270;28;20658;-67
2024/02/13 11:56:35;;;;;;;9.53;9.23;;;;;;;;;;5049103;28;20623;-67
2024/02/13 11:59:05;;;;;;;10.77;10.37;;;;;;;;;;5047683;28;20578;-67
2024/02/13 12:01:37;;;;;;;10.70;10.20;;;;;;;;;;5041817;28;20625;-68
2024/02/13 12:04:12;;;;;;;10.27;9.87;;;;;;;;;;5035079;28;20587;-68
2024/02/13 12:06:40;;;;;;;11.70;11.20;;;;;;;;;;5037594;28;20623;-68
2024/02/13 12:09:09;;;;;;;11.87;11.47;;;;;;;;;;5043870;28;20635;-67
2024/02/13 12:11:37;;;;;;;11.03;10.63;;;;;;;;;;5046102;28;20615;-69
2024/02/13 12:14:05;;;;;;;11.13;10.73;;;;;;;;;;5036818;28;20720;-68
2024/02/13 12:16:35;;;;;;;11.13;10.63;;;;;;;;;;5049123;28;20952;-67
2024/02/13 12:19:06;;;;;;;11.80;11.30;;;;;;;;;;5045092;28;20196;-68
2024/02/13 12:21:34;;;;;;;11.57;11.07;;;;;;;;;;5042325;28;20242;-68
2024/02/13 12:24:02;;;;;;;11.30;10.80;;;;;;;;;;5047403;28;21179;-68
2024/02/13 12:26:31;;;;;;;11.82;11.32;;;;;;;;;;5045574;28;20993;-68
2024/02/13 12:29:00;;;;;;;13.47;12.73;;;;;;;;;;5027227;28;20201;-67
2024/02/13 12:31:29;;;;;;;12.27;11.75;;;;;;;;;;5044281;28;20623;-68
2024/02/13 12:34:05;;;;;;;11.75;11.35;;;;;;;;;;5057519;28;20264;-69
2024/02/13 12:36:34;;;;;;;12.73;12.07;;;;;;;;;;5052637;28;20252;-69
2024/02/13 12:39:08;;;;;;;11.90;11.10;;;;;;;;;;5053372;28;20295;-69
2024/02/13 12:41:36;;;;;;;11.50;10.90;;;;;;;;;;5052821;28;20573;-68
2024/02/13 12:44:08;;;;;;;12.47;11.97;;;;;;;;;;5049644;28;21191;-69
2024/02/13 12:46:38;;;;;;;11.70;11.23;;;;;;;;;;5049910;28;20599;-68
2024/02/13 12:49:10;;;;;;;12.70;12.20;;;;;;;;;;5051738;28;20589;-68
2024/02/13 12:51:39;;;;;;;12.82;12.23;;;;;;;;;;5048178;28;20768;-69
2024/02/13 12:54:10;;;;;;;13.25;12.55;;;;;;;;;;5046033;28;20227;-70
2024/02/13 12:56:40;;;;;;;12.30;11.80;;;;;;;;;;5049278;28;20236;-69
2024/02/13 12:59:12;;;;;;;11.80;11.10;;;;;;;;;;5049208;28;20199;-68
2024/02/13 13:01:44;;;;;;;12.25;11.63;;;;;;;;;;5050293;28;20626;-69
2024/02/13 13:04:15;;;;;;;11.30;10.70;;;;;;;;;;5049147;28;20185;-68
2024/02/13 13:06:44;;;;;;;12.17;11.47;;;;;;;;;;5050760;28;20199;-69
2024/02/13 13:09:13;;;;;;;12.53;11.93;;;;;;;;;;5051572;28;20694;-69
2024/02/13 13:11:41;;;;;;;13.00;12.40;;;;;;;;;;5053889;28;20707;-69
2024/02/13 13:14:11;;;;;;;12.90;12.30;;;;;;;;;;5047836;28;20635;-68
2024/02/13 13:16:40;;;;;;;13.60;13.03;;;;;;;;;;5052725;28;20985;-68
2024/02/13 13:19:09;;;;;;;12.47;11.87;;;;;;;;;;5053776;28;21242;-68
2024/02/13 13:21:39;;;;;;;13.13;12.57;;;;;;;;;;5053355;28;20710;-68
2024/02/13 13:24:08;;;;;;;13.00;12.50;;;;;;;;;;5050161;28;20718;-67
2024/02/13 13:26:39;;;;;;;13.20;12.60;;;;;;;;;;5048648;28;20630;-67
2024/02/13 13:29:07;;;;;;;12.60;12.10;;;;;;;;;;5046550;28;20704;-66
2024/02/13 13:31:38;;;;;;;12.70;12.10;;;;;;;;;;5030206;28;20683;-66
2024/02/13 13:34:08;;;;;;;12.40;11.90;;;;;;;;;;5034698;28;20661;-66
2024/02/13 13:36:36;;;;;;;13.40;12.80;;;;;;;;;;5041195;28;20619;-65
2024/02/13 13:39:06;;;;;;;13.00;12.20;;;;;;;;;;5043245;28;20612;-65
2024/02/13 13:41:35;;;;;;;13.40;12.80;;;;;;;;;;5044904;28;21235;-66
2024/02/13 13:44:03;;;;;;;13.20;12.60;;;;;;;;;;5045478;28;20619;-65
2024/02/13 13:46:31;;;;;;;13.53;12.83;;;;;;;;;;5045476;28;20681;-65
2024/02/13 13:49:00;;;;;;;12.53;11.93;;;;;;;;;;5045021;28;20632;-66
2024/02/13 13:51:29;;;;;;;13.10;12.60;;;;;;;;;;5044333;28;20633;-66
2024/02/13 13:53:57;;;;;;;13.53;13.03;;;;;;;;;;5046520;28;20632;-66
2024/02/13 13:56:27;;;;;;;13.40;12.80;;;;;;;;;;5045181;28;20653;-66
2024/02/13 13:58:55;;;;;;;13.87;13.17;;;;;;;;;;5044192;28;20634;-65
2024/02/13 14:01:23;;;;;;;13.80;13.20;;;;;;;;;;5045057;28;21177;-65
2024/02/13 14:03:54;;;;;;;12.90;12.40;;;;;;;;;;5042338;28;20615;-65
2024/02/13 14:06:22;;;;;;;13.27;12.67;;;;;;;;;;5042844;28;20608;-65
2024/02/13 14:08:50;;;;;;;13.90;13.30;;;;;;;;;;5043760;28;20621;-65
2024/02/13 14:11:20;;;;;;;14.80;14.00;;;;;;;;;;5048024;28;20605;-66
2024/02/13 14:13:52;;;;;;;14.97;14.17;;;;;;;;;;5049691;28;21724;-65
2024/02/13 14:16:20;;;;;;;13.67;13.10;;;;;;;;;;5048882;28;20605;-65
2024/02/13 14:18:48;;;;;;;14.17;13.63;;;;;;;;;;5051271;28;20631;-65
2024/02/13 14:21:17;;;;;;;13.97;13.20;;;;;;;;;;5053499;28;20629;-65
2024/02/13 14:23:45;;;;;;;14.07;13.37;;;;;;;;;;5046975;28;20681;-66
2024/02/13 14:26:14;;;;;;;13.60;13.00;;;;;;;;;;5047994;28;20969;-66
2024/02/13 14:28:42;;;;;;;13.93;12.87;;;;;;;;;;5050620;28;20641;-66
2024/02/13 14:31:12;;;;;;;13.33;12.73;;;;;;;;;;5037651;28;21339;-66
2024/02/13 14:33:40;;;;;;;13.50;12.60;;;;;;;;;;5048516;28;20611;-66
2024/02/13 14:36:09;;;;;;;13.20;12.50;;;;;;;;;;5052826;28;21043;-65
2024/02/13 14:38:37;;;;;;;22.80;20.80;;;;;;;;;;5050547;28;20623;-66
2024/02/13 14:41:08;;;;;;;16.50;15.33;;;;;;;;;;5048383;28;20700;-66
2024/02/13 14:43:37;;;;;;;13.60;13.00;;;;;;;;;;5051782;28;20607;-65
2024/02/13 14:46:06;;;;;;;15.00;14.30;;;;;;;;;;5046062;28;20628;-66
2024/02/13 14:48:36;;;;;;;15.63;14.83;;;;;;;;;;5040757;28;20677;-66
2024/02/13 14:51:05;;;;;;;14.20;13.60;;;;;;;;;;5048833;28;20990;-66